Time;durP1;ratioP1;P1;durP2;ratioP2;P2;SDS_P1;SDS_P2;PMS_P1;PMS_P2;Temp;Humidity;BMP_temperature;BMP_pressure;BME280_temperature;BME280_humidity;BME280_pressure;Samples;Min_cycle;Max_cycle;Signal;HPM_P1;HPM_P2
2023/07/12 00:01:51;;;;;;;9.32;2.50;;;;;;;-146.27;75.87;81335.72;5073938;28;20480;-73
2023/07/12 00:04:16;;;;;;;13.00;2.20;;;;;;;-146.27;77.04;81367.88;5076610;28;20479;-74
2023/07/12 00:06:42;;;;;;;9.40;2.10;;;;;;;-146.27;76.96;81359.81;5076556;28;20020;-73
2023/07/12 00:09:13;;;;;;;9.57;1.80;;;;;;;-146.27;77.56;81363.84;5061761;28;20024;-73
2023/07/12 00:11:39;;;;;;;17.45;2.35;;;;;;;-146.27;77.70;81355.81;5069075;28;20388;-74
2023/07/12 00:14:05;;;;;;;11.63;2.25;;;;;;;-146.27;78.06;81400.00;5069239;28;20040;-73
2023/07/12 00:16:36;;;;;;;10.50;2.17;;;;;;;-146.27;78.79;81414.06;5073454;28;20479;-73
2023/07/12 00:19:02;;;;;;;9.45;2.60;;;;;;;-146.27;79.80;81426.09;5076863;28;20107;-74
2023/07/12 00:21:30;;;;;;;11.65;2.50;;;;;;;-146.27;80.41;81402.00;5058738;28;20092;-73
2023/07/12 00:23:57;;;;;;;8.98;1.98;;;;;;;-146.27;81.60;81416.06;5074328;28;20455;-73
2023/07/12 00:26:28;;;;;;;9.68;2.58;;;;;;;-146.27;82.44;81428.09;5072836;28;20042;-74
2023/07/12 00:28:55;;;;;;;11.52;2.83;;;;;;;-146.27;83.93;81452.22;5069741;28;20051;-73
2023/07/12 00:31:21;;;;;;;15.32;2.67;;;;;;;-146.27;84.32;81516.47;5063348;28;20025;-73
2023/07/12 00:33:46;;;;;;;17.02;3.10;;;;;;;-146.27;85.29;81520.50;5071157;28;20028;-73
2023/07/12 00:36:18;;;;;;;12.75;2.67;;;;;;;-146.27;87.05;81508.44;5081134;28;20484;-74
2023/07/12 00:38:43;;;;;;;11.13;2.42;;;;;;;-146.27;87.16;81572.72;5066211;28;20056;-73
2023/07/12 00:41:30;;;;;;;12.32;2.92;;;;;;;-146.27;89.16;81578.75;5055001;28;20079;-74
2023/07/12 00:44:05;;;;;;;12.57;3.03;;;;;;;-146.27;88.88;81580.75;5070908;28;20071;-73
2023/07/12 00:46:52;;;;;;;16.30;2.80;;;;;;;-146.27;90.21;81618.91;5057038;28;20652;-73
2023/07/12 00:49:18;;;;;;;12.13;2.88;;;;;;;-146.27;89.43;81645.00;5064575;28;20032;-73
2023/07/12 00:51:49;;;;;;;13.98;2.67;;;;;;;-146.27;89.99;81645.00;5054270;28;20396;-73
2023/07/12 00:54:18;;;;;;;14.13;2.92;;;;;;;-146.27;89.70;81697.22;5073132;28;20103;-73
2023/07/12 00:56:44;;;;;;;5.75;2.25;;;;;;;-146.27;89.71;81641.00;5083940;28;20476;-73
2023/07/12 00:59:14;;;;;;;9.52;2.53;;;;;;;-146.27;89.77;81645.00;5072216;28;20040;-73
2023/07/12 01:01:40;;;;;;;15.10;2.53;;;;;;;-146.27;89.79;81693.22;5063208;28;20075;-74
2023/07/12 01:04:07;;;;;;;9.00;2.38;;;;;;;-146.27;90.43;81683.19;5059210;28;20107;-73
2023/07/12 01:06:34;;;;;;;11.98;3.38;;;;;;;-146.27;90.91;81685.19;5078710;28;20078;-73
2023/07/12 01:09:08;;;;;;;15.10;2.72;;;;;;;-146.27;90.65;81653.06;5072681;28;20104;-73
2023/07/12 01:11:34;;;;;;;15.73;3.35;;;;;;;-146.27;91.60;81669.13;5022928;28;1094317;-73
2023/07/12 01:13:59;;;;;;;15.75;3.55;;;;;;;-146.27;91.08;81665.09;5067532;28;20032;-73
2023/07/12 01:16:25;;;;;;;14.68;2.60;;;;;;;-146.27;91.63;81731.38;5078784;28;20042;-73
2023/07/12 01:18:50;;;;;;;13.93;3.25;;;;;;;-146.27;91.91;81701.25;5052584;28;20020;-73
2023/07/12 01:21:22;;;;;;;13.68;2.88;;;;;;;-146.27;92.20;81721.34;5055449;28;20090;-74
2023/07/12 01:23:49;;;;;;;11.93;3.50;;;;;;;-146.27;92.67;81729.38;5070607;28;20024;-73
2023/07/12 01:26:17;;;;;;;14.25;3.15;;;;;;;-146.27;92.79;81719.31;5055376;28;20033;-73
2023/07/12 01:28:43;;;;;;;7.07;2.75;;;;;;;-146.27;92.58;81705.28;5069033;28;20419;-73
2023/07/12 01:31:09;;;;;;;16.17;3.65;;;;;;;-146.27;92.60;81713.31;5074547;28;20059;-73
2023/07/12 01:33:34;;;;;;;14.52;3.22;;;;;;;-146.27;93.02;81745.44;5072991;28;20028;-74
2023/07/12 01:36:00;;;;;;;20.70;4.18;;;;;;;-146.27;93.57;81763.50;5075800;28;20461;-74
2023/07/12 01:38:25;;;;;;;15.65;3.08;;;;;;;-146.27;94.67;81729.38;5077545;28;20058;-74
2023/07/12 01:40:50;;;;;;;12.35;2.55;;;;;;;-146.27;93.97;81725.34;5076265;28;20031;-74
2023/07/12 01:43:16;;;;;;;14.55;2.95;;;;;;;-146.27;93.52;81723.34;5071729;28;20024;-74
2023/07/12 01:45:42;;;;;;;19.45;3.80;;;;;;;-146.27;93.77;81779.59;5057949;28;20104;-74
2023/07/12 01:48:07;;;;;;;13.13;3.10;;;;;;;-146.27;94.48;81729.38;5055284;28;20437;-74
2023/07/12 01:50:32;;;;;;;17.15;2.97;;;;;;;-146.27;94.04;81793.66;5066577;28;20443;-74
2023/07/12 01:52:58;;;;;;;11.88;2.33;;;;;;;-146.27;93.83;81757.50;5070525;28;20037;-73
2023/07/12 01:55:23;;;;;;;16.58;3.00;;;;;;;-146.27;94.46;81721.34;5056889;28;20071;-73
2023/07/12 01:57:48;;;;;;;14.50;2.75;;;;;;;-146.27;93.20;81697.22;5062099;28;20025;-72
2023/07/12 02:00:14;;;;;;;21.25;3.55;;;;;;;-146.27;93.27;81753.47;5062422;28;20021;-72
2023/07/12 02:02:40;;;;;;;14.43;3.20;;;;;;;-146.27;92.87;81725.34;5057267;28;20025;-74
2023/07/12 02:05:06;;;;;;;15.93;2.95;;;;;;;-146.27;93.17;81709.28;5062920;28;20027;-74
2023/07/12 02:07:32;;;;;;;15.55;3.22;;;;;;;-146.27;92.76;81683.19;5071350;28;20056;-74
2023/07/12 02:10:27;;;;;;;8.60;2.05;;;;;;;-146.27;92.44;81675.16;5084403;28;20074;-74
2023/07/12 02:12:56;;;;;;;15.27;3.17;;;;;;;-146.27;92.42;81681.16;5067054;28;20084;-74
2023/07/12 02:15:21;;;;;;;17.33;2.70;;;;;;;-146.27;93.54;81721.34;5069828;28;20060;-74
2023/07/12 02:17:47;;;;;;;9.95;2.35;;;;;;;-146.27;92.94;81733.38;5069812;28;20048;-74
2023/07/12 02:20:13;;;;;;;18.75;3.50;;;;;;;-146.27;93.39;81737.41;5061088;28;20095;-74
2023/07/12 02:22:43;;;;;;;12.38;4.03;;;;;;;-146.27;93.38;81733.38;5069272;28;20494;-74
2023/07/12 02:25:10;;;;;;;24.27;2.97;;;;;;;-146.27;93.73;81755.47;5086403;28;20028;-74
2023/07/12 02:27:35;;;;;;;18.67;2.83;;;;;;;-146.27;94.26;81709.28;5073510;28;20052;-74
2023/07/12 02:30:00;;;;;;;15.05;2.78;;;;;;;-146.27;93.70;81745.44;5070279;28;20150;-74
2023/07/12 02:32:27;;;;;;;13.75;3.03;;;;;;;-146.27;93.42;81733.38;5069389;28;20024;-72
2023/07/12 02:34:53;;;;;;;12.43;2.50;;;;;;;-146.27;93.02;81739.41;5066695;28;20023;-74
2023/07/12 02:37:19;;;;;;;10.23;3.15;;;;;;;-146.27;92.74;81763.50;5070779;28;20078;-74
2023/07/12 02:39:45;;;;;;;11.18;2.78;;;;;;;-146.27;92.96;81703.25;5070003;28;20557;-74
2023/07/12 02:42:11;;;;;;;8.80;2.20;;;;;;;-146.27;92.74;81729.38;5069399;28;20052;-74
2023/07/12 02:44:40;;;;;;;15.15;2.40;;;;;;;-146.27;92.48;81729.38;5051009;28;20044;-74
2023/07/12 02:47:07;;;;;;;16.83;2.78;;;;;;;-146.27;92.23;81709.28;5060640;28;20051;-74
2023/07/12 02:49:33;;;;;;;9.02;2.30;;;;;;;-146.27;92.14;81755.47;5051707;28;20036;-74
2023/07/12 02:51:58;;;;;;;17.40;2.45;;;;;;;-146.27;92.18;81735.41;5051908;28;20067;-74
2023/07/12 02:54:24;;;;;;;11.32;2.50;;;;;;;-146.27;92.69;81723.34;5060953;28;20056;-74
2023/07/12 02:56:49;;;;;;;9.60;2.45;;;;;;;-146.27;92.76;81749.47;5070658;28;20039;-74
2023/07/12 02:59:15;;;;;;;12.20;2.60;;;;;;;-146.27;92.70;81683.19;5083846;28;20112;-74
2023/07/12 03:01:41;;;;;;;17.23;3.25;;;;;;;-146.27;93.15;81749.47;5072270;28;20023;-74
2023/07/12 03:04:07;;;;;;;13.80;2.60;;;;;;;-146.27;94.08;81721.34;5070859;28;20472;-74
2023/07/12 03:06:32;;;;;;;16.90;2.38;;;;;;;-146.27;93.32;81737.41;5075365;28;20024;-74
2023/07/12 03:08:57;;;;;;;12.27;2.83;;;;;;;-146.27;93.68;81775.56;5069732;28;20027;-74
2023/07/12 03:11:23;;;;;;;10.57;2.63;;;;;;;-146.27;93.43;81729.38;5060524;28;20461;-74
2023/07/12 03:13:51;;;;;;;12.63;2.78;;;;;;;-146.27;92.99;81707.28;5069775;28;20039;-74
2023/07/12 03:16:17;;;;;;;17.38;2.88;;;;;;;-146.27;93.12;81781.59;5077632;28;20034;-75
2023/07/12 03:18:42;;;;;;;10.07;2.65;;;;;;;-146.27;93.33;81761.50;5077483;28;20061;-74
2023/07/12 03:21:08;;;;;;;16.63;3.38;;;;;;;-146.27;92.49;81761.50;5058493;28;20027;-75
2023/07/12 03:23:35;;;;;;;14.60;2.80;;;;;;;-146.27;92.76;81763.50;5068767;28;20095;-74
2023/07/12 03:26:01;;;;;;;14.13;2.83;;;;;;;-146.27;92.52;81733.38;5058775;28;20039;-75
2023/07/12 03:28:28;;;;;;;13.45;3.13;;;;;;;-146.27;92.15;81737.41;5083694;28;20028;-75
2023/07/12 03:31:05;;;;;;;12.45;2.78;;;;;;;-146.27;92.04;81721.34;5078719;28;20043;-75
2023/07/12 03:33:31;;;;;;;17.70;2.88;;;;;;;-146.27;91.56;81697.22;5076555;28;20039;-74
2023/07/12 03:35:57;;;;;;;13.48;3.40;;;;;;;-146.27;90.88;81697.22;5075995;28;20021;-75
2023/07/12 03:38:25;;;;;;;11.73;2.83;;;;;;;-146.27;90.27;81737.41;5070151;28;20427;-74
2023/07/12 03:40:52;;;;;;;13.07;2.65;;;;;;;-146.27;89.64;81737.41;5069796;28;20033;-74
2023/07/12 03:43:19;;;;;;;18.15;3.00;;;;;;;-146.27;89.42;81733.38;5061489;28;20044;-74
2023/07/12 03:45:44;;;;;;;12.20;2.45;;;;;;;-146.27;89.26;81721.34;5077679;28;20024;-74
2023/07/12 03:48:10;;;;;;;20.20;2.90;;;;;;;-146.27;88.64;81673.13;5087429;28;20024;-74
2023/07/12 03:50:40;;;;;;;13.68;2.97;;;;;;;-146.27;88.70;81717.31;5075785;28;20102;-74
2023/07/12 03:53:06;;;;;;;12.40;4.07;;;;;;;-146.27;88.40;81741.41;5063546;28;20029;-74
2023/07/12 03:55:31;;;;;;;13.43;2.47;;;;;;;-146.27;88.40;81701.25;5068185;28;20502;-74
2023/07/12 03:57:56;;;;;;;12.30;2.95;;;;;;;-146.27;88.60;81741.41;5085409;28;20028;-74
2023/07/12 04:00:22;;;;;;;14.57;3.38;;;;;;;-146.27;89.35;81769.53;5064915;28;20033;-74
2023/07/12 04:02:47;;;;;;;7.75;2.22;;;;;;;-146.27;89.82;81749.47;5056755;28;20028;-74
2023/07/12 04:05:12;;;;;;;10.85;2.83;;;;;;;-146.27;90.44;81791.63;5067104;28;20037;-74
2023/07/12 04:07:38;;;;;;;12.25;3.15;;;;;;;-146.27;90.60;81753.47;5074430;28;20032;-74
2023/07/12 04:10:04;;;;;;;15.10;2.80;;;;;;;-146.27;90.69;81817.75;5071764;28;20142;-74
2023/07/12 04:12:30;;;;;;;15.52;3.53;;;;;;;-146.27;90.43;81769.53;5059502;28;20068;-74
2023/07/12 04:14:58;;;;;;;14.02;3.03;;;;;;;-146.27;90.92;81777.56;5072498;28;20028;-74
2023/07/12 04:17:23;;;;;;;11.30;2.83;;;;;;;-146.27;91.31;81773.56;5080279;28;20032;-74
2023/07/12 04:19:48;;;;;;;10.02;2.78;;;;;;;-146.27;90.80;81771.53;5073607;28;20059;-74
2023/07/12 04:22:14;;;;;;;15.48;3.25;;;;;;;-146.27;90.40;81761.50;5066557;28;20035;-74
2023/07/12 04:24:39;;;;;;;14.75;3.30;;;;;;;-146.27;90.45;81757.50;5066786;28;20028;-74
2023/07/12 04:27:05;;;;;;;15.07;2.38;;;;;;;-146.27;90.40;81793.66;5069237;28;20035;-74
2023/07/12 04:29:31;;;;;;;19.77;3.92;;;;;;;-146.27;90.69;81801.69;5080070;28;20032;-74
2023/07/12 04:31:57;;;;;;;11.98;2.95;;;;;;;-146.27;90.62;81801.69;5078237;28;20033;-74
2023/07/12 04:34:22;;;;;;;19.25;3.22;;;;;;;-146.27;91.23;81779.59;5068306;28;20033;-74
2023/07/12 04:36:48;;;;;;;13.88;3.10;;;;;;;-146.27;91.11;81769.53;5077595;28;20040;-74
2023/07/12 04:39:13;;;;;;;17.27;4.78;;;;;;;-146.27;91.18;81793.66;5061781;28;20027;-74
2023/07/12 04:41:38;;;;;;;15.32;4.25;;;;;;;-146.27;91.62;81863.94;5060392;28;20158;-74
2023/07/12 04:44:04;;;;;;;22.33;4.88;;;;;;;-146.27;91.92;81843.84;5072358;28;20020;-73
2023/07/12 04:46:30;;;;;;;13.45;3.60;;;;;;;-146.27;92.19;81857.91;5076649;28;20036;-75
2023/07/12 04:48:55;;;;;;;10.25;4.10;;;;;;;-146.27;92.29;81888.03;5070430;28;20549;-73
2023/07/12 04:51:21;;;;;;;11.05;4.68;;;;;;;-146.27;91.78;81855.91;5074694;28;20115;-75
2023/07/12 04:53:47;;;;;;;14.20;4.47;;;;;;;-146.27;91.56;81859.94;5078647;28;20032;-73
2023/07/12 04:56:16;;;;;;;14.07;4.50;;;;;;;-146.27;91.58;81817.75;5075746;28;20569;-73
2023/07/12 04:58:43;;;;;;;15.30;4.35;;;;;;;-146.27;91.45;81809.72;5082360;28;20460;-73
2023/07/12 05:01:09;;;;;;;13.43;3.85;;;;;;;-146.27;91.93;81853.91;5089292;28;20476;-73
2023/07/12 05:03:36;;;;;;;15.85;3.83;;;;;;;-146.27;92.31;81849.88;5081464;28;20028;-73
2023/07/12 05:06:02;;;;;;;14.90;3.95;;;;;;;-146.27;91.90;81829.78;5076895;28;20028;-73
2023/07/12 05:08:27;;;;;;;15.00;4.07;;;;;;;-146.27;92.15;81779.59;5070828;28;20024;-73
2023/07/12 05:10:58;;;;;;;12.60;3.95;;;;;;;-146.27;92.24;81765.53;5059721;28;20044;-73
2023/07/12 05:13:23;;;;;;;15.27;4.47;;;;;;;-146.27;91.83;81777.56;5080222;28;20135;-73
2023/07/12 05:15:54;;;;;;;14.57;5.20;;;;;;;-146.27;91.46;81753.47;5055909;28;20024;-73
2023/07/12 05:18:20;;;;;;;14.27;3.85;;;;;;;-146.27;91.89;81801.69;5072654;28;20062;-73
2023/07/12 05:20:45;;;;;;;12.75;4.07;;;;;;;-146.27;91.60;81741.41;5069958;28;20060;-73
2023/07/12 05:23:11;;;;;;;14.20;4.15;;;;;;;-146.27;91.37;81725.34;5078931;28;20082;-74
2023/07/12 05:25:37;;;;;;;18.10;4.05;;;;;;;-146.27;91.55;81787.63;5081148;28;20554;-73
2023/07/12 05:28:02;;;;;;;15.10;4.22;;;;;;;-146.27;91.42;81789.63;5067097;28;20028;-73
2023/07/12 05:30:30;;;;;;;10.68;3.72;;;;;;;-146.27;92.30;81777.56;5071295;28;20024;-73
2023/07/12 05:32:56;;;;;;;20.40;5.85;;;;;;;-146.27;93.28;81845.88;5069897;28;20020;-73
2023/07/12 05:35:22;;;;;;;21.25;5.28;;;;;;;-146.27;93.02;81821.75;5070943;28;20753;-73
2023/07/12 05:37:49;;;;;;;13.55;4.55;;;;;;;-146.27;93.06;81815.72;5088033;28;20119;-73
2023/07/12 05:40:15;;;;;;;14.85;4.13;;;;;;;-146.27;92.79;81761.50;5069019;28;20028;-73
2023/07/12 05:42:41;;;;;;;19.15;4.05;;;;;;;-146.27;92.79;81743.44;5057848;28;20043;-72
2023/07/12 05:45:13;;;;;;;20.98;4.03;;;;;;;-146.27;90.96;81729.38;5087583;28;20135;-73
2023/07/12 05:47:38;;;;;;;18.88;3.63;;;;;;;-146.27;89.99;81717.31;5078345;28;20082;-73
2023/07/12 05:50:06;;;;;;;11.73;3.83;;;;;;;-146.27;89.24;81725.34;5070988;28;20024;-75
2023/07/12 05:52:31;;;;;;;17.88;3.28;;;;;;;-146.27;89.40;81729.38;5072403;28;20086;-75
2023/07/12 05:54:57;;;;;;;17.10;3.63;;;;;;;-146.27;88.53;81689.19;5072993;28;20028;-73
2023/07/12 05:57:22;;;;;;;16.55;3.80;;;;;;;-146.27;88.02;81709.28;5082531;28;20028;-73
2023/07/12 05:59:48;;;;;;;12.23;2.95;;;;;;;-146.27;87.50;81661.09;5071447;28;20025;-74
2023/07/12 06:02:14;;;;;;;16.90;3.40;;;;;;;-146.27;86.89;81725.34;5084625;28;20104;-74
2023/07/12 06:04:40;;;;;;;18.73;3.08;;;;;;;-146.27;87.01;81628.94;5068845;28;20037;-74
2023/07/12 06:07:06;;;;;;;17.33;3.33;;;;;;;-146.27;86.43;81636.97;5072621;28;20032;-74
2023/07/12 06:09:32;;;;;;;18.77;3.83;;;;;;;-146.27;85.64;81616.91;5073364;28;20078;-73
2023/07/12 06:11:57;;;;;;;15.82;2.95;;;;;;;-146.27;85.24;81661.09;5065209;28;20523;-74
2023/07/12 06:14:22;;;;;;;11.48;2.55;;;;;;;-146.27;85.45;81572.72;5070307;28;20036;-74
2023/07/12 06:16:48;;;;;;;13.93;3.00;;;;;;;-146.27;84.62;81572.72;5066010;28;20025;-74
2023/07/12 06:19:13;;;;;;;13.07;2.97;;;;;;;-146.27;84.27;81556.66;5069458;28;20025;-74
2023/07/12 06:21:39;;;;;;;10.20;3.10;;;;;;;-146.27;84.56;81576.72;5064358;28;20029;-74
2023/07/12 06:24:06;;;;;;;18.15;2.80;;;;;;;-146.27;84.28;81588.78;5068952;28;20067;-74
2023/07/12 06:26:32;;;;;;;12.15;2.70;;;;;;;-146.27;83.56;81626.94;5058295;28;20032;-73
2023/07/12 06:28:59;;;;;;;11.45;2.45;;;;;;;-146.27;84.21;81584.75;5063929;28;20035;-74
2023/07/12 06:31:25;;;;;;;10.80;2.55;;;;;;;-146.27;85.18;81739.41;5068913;28;20025;-73
2023/07/12 06:33:50;;;;;;;12.70;3.20;;;;;;;-146.27;85.18;81659.06;5068556;28;20077;-73
2023/07/12 06:36:16;;;;;;;15.65;3.17;;;;;;;-146.27;84.91;81624.94;5066874;28;20652;-73
2023/07/12 06:38:41;;;;;;;16.88;2.72;;;;;;;-146.27;84.72;81570.69;5070856;28;20035;-73
2023/07/12 06:41:07;;;;;;;17.08;2.97;;;;;;;-146.27;83.99;81546.59;5069248;28;20032;-74
2023/07/12 06:43:32;;;;;;;14.68;3.25;;;;;;;-146.27;83.15;81530.53;5068813;28;20024;-73
2023/07/12 06:45:58;;;;;;;17.08;2.67;;;;;;;-146.27;82.96;81516.47;5063133;28;20075;-74
2023/07/12 06:48:23;;;;;;;12.43;2.55;;;;;;;-146.27;82.71;81506.44;5076286;28;20100;-75
2023/07/12 06:50:49;;;;;;;10.38;2.35;;;;;;;-146.27;82.28;81502.41;5075201;28;20024;-72
2023/07/12 06:53:14;;;;;;;14.23;2.30;;;;;;;-146.27;81.73;81476.31;5059339;28;20024;-73
2023/07/12 06:55:44;;;;;;;18.90;3.20;;;;;;;-146.27;80.31;81498.41;5058557;28;20029;-73
2023/07/12 06:58:11;;;;;;;11.80;2.03;;;;;;;-146.27;80.15;81412.03;5065035;28;20483;-73
2023/07/12 07:00:39;;;;;;;12.57;2.03;;;;;;;-146.27;78.95;81440.16;5064147;28;20377;-74
2023/07/12 07:03:09;;;;;;;14.10;3.25;;;;;;;-146.27;78.49;81406.03;5064427;28;20028;-74
2023/07/12 07:05:39;;;;;;;13.23;2.60;;;;;;;-146.27;78.63;81428.09;5066669;28;20538;-71
2023/07/12 07:08:05;;;;;;;8.25;2.55;;;;;;;-146.27;78.33;81454.22;5066924;28;20502;-73
2023/07/12 07:10:31;;;;;;;16.60;2.83;;;;;;;-146.27;79.05;81470.28;5067089;28;20113;-73
2023/07/12 07:12:56;;;;;;;12.95;2.47;;;;;;;-146.27;79.33;81448.19;5058703;28;20440;-73
2023/07/12 07:15:22;;;;;;;9.38;2.80;;;;;;;-146.27;78.58;81448.19;5068161;28;20021;-73
2023/07/12 07:17:47;;;;;;;14.23;2.75;;;;;;;-146.27;78.65;81420.06;5072435;28;20024;-73
2023/07/12 07:20:13;;;;;;;17.10;2.78;;;;;;;-146.27;78.35;81418.06;5079945;28;20093;-73
2023/07/12 07:22:39;;;;;;;13.40;2.85;;;;;;;-146.27;79.25;81454.22;5067573;28;20472;-73
2023/07/12 07:25:06;;;;;;;11.38;3.50;;;;;;;-146.27;80.11;81472.28;5066965;28;20036;-74
2023/07/12 07:27:31;;;;;;;14.32;2.53;;;;;;;-146.27;80.91;81452.22;5066859;28;20508;-74
2023/07/12 07:29:57;;;;;;;11.52;2.13;;;;;;;-146.27;79.20;81528.53;5068107;28;20048;-73
2023/07/12 07:32:22;;;;;;;9.52;2.38;;;;;;;-146.27;79.41;81500.41;5068652;28;20051;-73
2023/07/12 07:34:48;;;;;;;18.50;2.35;;;;;;;-146.27;80.93;81628.94;5068508;28;20505;-73
2023/07/12 07:37:14;;;;;;;8.43;2.45;;;;;;;-146.27;82.49;81608.88;5075280;28;20028;-73
2023/07/12 07:39:39;;;;;;;17.80;2.75;;;;;;;-146.27;82.82;81584.75;5076997;28;20024;-73
2023/07/12 07:42:05;;;;;;;11.60;2.35;;;;;;;-146.27;83.06;81580.75;5067750;28;20017;-73
2023/07/12 07:44:30;;;;;;;9.63;2.30;;;;;;;-146.27;83.47;81588.78;5090404;28;20028;-73
2023/07/12 07:46:56;;;;;;;7.90;2.45;;;;;;;-146.27;83.17;81592.78;5094131;28;20024;-73
2023/07/12 07:49:21;;;;;;;9.38;2.85;;;;;;;-146.27;83.23;81538.56;5076609;28;20063;-73
2023/07/12 07:51:47;;;;;;;10.73;2.33;;;;;;;-146.27;82.72;81568.69;5078682;28;20024;-73
2023/07/12 07:54:13;;;;;;;11.23;2.88;;;;;;;-146.27;81.75;81506.44;5082566;28;20458;-73
2023/07/12 07:56:39;;;;;;;12.27;2.72;;;;;;;-146.27;81.50;81536.56;5067870;28;20020;-72
2023/07/12 07:59:06;;;;;;;10.00;2.28;;;;;;;-146.27;80.40;81428.09;5072091;28;20024;-72
2023/07/12 08:01:31;;;;;;;12.55;1.90;;;;;;;-146.27;79.17;81416.06;5061311;28;20028;-72
2023/07/12 08:03:57;;;;;;;5.57;1.65;;;;;;;-146.27;78.20;81406.03;5054589;28;20557;-72
2023/07/12 08:06:22;;;;;;;10.52;2.28;;;;;;;-146.27;77.39;81389.94;5063434;28;20031;-72
2023/07/12 08:08:48;;;;;;;10.35;1.70;;;;;;;-146.27;76.95;81375.91;5076848;28;20020;-73
2023/07/12 08:11:14;;;;;;;6.65;1.90;;;;;;;-146.27;77.18;81404.00;5080558;28;20127;-72
2023/07/12 08:13:39;;;;;;;12.35;2.55;;;;;;;-146.27;77.69;81486.34;5079123;28;20076;-72
2023/07/12 08:16:05;;;;;;;12.82;2.10;;;;;;;-146.27;77.18;81446.19;5084822;28;20016;-72
2023/07/12 08:18:30;;;;;;;10.07;1.80;;;;;;;-146.27;76.66;81422.09;5080812;28;20024;-73
2023/07/12 08:20:56;;;;;;;9.38;2.67;;;;;;;-146.27;77.48;81534.56;5073529;28;20476;-73
2023/07/12 08:23:22;;;;;;;8.18;2.30;;;;;;;-146.27;78.41;81546.59;5072908;28;20064;-73
2023/07/12 08:25:49;;;;;;;7.57;2.13;;;;;;;-146.27;78.02;81548.59;5073826;28;20040;-71
2023/07/12 08:28:15;;;;;;;6.82;2.00;;;;;;;-146.27;77.31;81478.31;5070672;28;20032;-70
2023/07/12 08:30:40;;;;;;;7.75;2.17;;;;;;;-146.27;77.34;81528.53;5072138;28;20122;-71
2023/07/12 08:33:06;;;;;;;6.57;1.88;;;;;;;-146.27;77.51;81476.31;5074288;28;20448;-70
2023/07/12 08:35:32;;;;;;;7.90;2.85;;;;;;;-146.27;76.58;81528.53;5075940;28;20043;-70
2023/07/12 08:37:57;;;;;;;7.18;1.55;;;;;;;-146.27;76.13;81540.56;5084716;28;20039;-71
2023/07/12 08:40:23;;;;;;;6.22;1.50;;;;;;;-146.27;76.32;81488.38;5092819;28;20024;-71
2023/07/12 08:42:50;;;;;;;6.72;1.98;;;;;;;-146.27;76.17;81472.28;5092774;28;20042;-70
2023/07/12 08:45:21;;;;;;;13.07;2.05;;;;;;;-146.27;76.08;81452.22;5064659;28;20556;-71
2023/07/12 08:47:48;;;;;;;7.93;1.80;;;;;;;-146.27;77.05;81468.28;5081239;28;20095;-71
2023/07/12 08:50:15;;;;;;;7.25;2.00;;;;;;;-146.27;76.44;81448.19;5070095;28;20017;-71
2023/07/12 08:52:44;;;;;;;9.10;2.83;;;;;;;-146.27;77.75;81480.31;5066427;28;20364;-71
2023/07/12 08:55:34;;;;;;;10.40;2.20;;;;;;;-146.27;78.61;81494.38;5075476;28;20138;-71
2023/07/12 08:58:19;;;;;;;6.65;2.20;;;;;;;-146.27;78.90;81566.69;5076247;28;20032;-70
2023/07/12 09:01:14;;;;;;;6.35;1.88;;;;;;;-146.27;79.32;81540.56;5061175;28;20033;-71
2023/07/12 09:03:40;;;;;;;11.10;2.88;;;;;;;-146.27;80.24;81546.59;5068322;28;20058;-68
2023/07/12 09:06:14;;;;;;;10.45;2.42;;;;;;;-146.27;79.80;81450.19;5071234;28;20122;-70
2023/07/12 09:08:45;;;;;;;4.13;1.60;;;;;;;-146.27;79.63;81327.69;5066439;28;20016;-72
2023/07/12 09:11:19;;;;;;;9.85;1.85;;;;;;;-146.27;77.66;81249.38;5071272;28;20056;-71
2023/07/12 09:13:46;;;;;;;12.93;2.00;;;;;;;-146.27;75.26;81327.69;5069825;28;20036;-72
2023/07/12 09:16:32;;;;;;;5.90;1.50;;;;;;;-146.27;74.67;81363.84;5067805;28;20047;-72
2023/07/12 09:19:00;;;;;;;7.95;2.13;;;;;;;-146.27;75.57;81337.75;5064724;28;20725;-71
2023/07/12 09:21:36;;;;;;;7.85;1.83;;;;;;;-146.27;74.62;81255.41;5067512;28;20028;-71
2023/07/12 09:24:11;;;;;;;13.02;2.40;;;;;;;-146.27;74.70;81265.44;5062538;28;20385;-71
2023/07/12 09:26:37;;;;;;;7.25;2.10;;;;;;;-146.27;74.61;81285.53;5071349;28;20073;-70
2023/07/12 09:29:14;;;;;;;6.90;2.00;;;;;;;-146.27;75.49;81408.03;5067389;28;20032;-71
2023/07/12 09:31:43;;;;;;;12.57;1.90;;;;;;;-146.27;76.13;81387.94;5070170;28;20408;-72
2023/07/12 09:34:23;;;;;;;8.40;2.63;;;;;;;-146.27;76.44;81402.00;5069748;28;20083;-75
2023/07/12 09:36:59;;;;;;;5.97;1.63;;;;;;;-146.27;75.85;81400.00;5070487;28;20039;-73
2023/07/12 09:39:26;;;;;;;8.65;2.00;;;;;;;-146.27;75.60;81351.78;5067981;28;20036;-74
2023/07/12 09:41:56;;;;;;;5.35;1.90;;;;;;;-146.27;75.15;81391.97;5071175;28;20024;-74
2023/07/12 09:44:30;;;;;;;9.25;1.75;;;;;;;-146.27;75.48;81335.72;5072093;28;20024;-75
2023/07/12 09:47:33;;;;;;;5.60;1.73;;;;;;;-146.27;74.85;81303.59;5067916;28;20054;-75
2023/07/12 09:50:06;;;;;;;6.93;1.50;;;;;;;-146.27;73.96;81187.13;5059229;28;20037;-75
2023/07/12 09:52:39;;;;;;;9.13;1.80;;;;;;;-146.27;72.63;81227.28;5079536;28;20024;-75
2023/07/12 09:55:22;;;;;;;3.38;1.60;;;;;;;-146.27;72.63;81235.31;5062251;28;20020;-74
2023/07/12 09:58:09;;;;;;;7.03;1.70;;;;;;;-146.27;72.62;81122.84;5071117;28;20031;-75
2023/07/12 10:00:50;;;;;;;3.92;1.85;;;;;;;-146.27;70.32;81096.75;5060375;28;20124;-74
2023/07/12 10:03:26;;;;;;;11.30;2.10;;;;;;;-146.27;70.62;81076.66;5049847;28;20029;-71
2023/07/12 10:05:59;;;;;;;3.63;1.35;;;;;;;-146.27;69.02;81062.59;5051015;28;20420;-75
2023/07/12 10:08:33;;;;;;;5.20;1.60;;;;;;;-146.27;68.24;80954.19;5059434;28;20029;-76
2023/07/12 10:11:16;;;;;;;5.13;1.92;;;;;;;-146.27;68.45;81167.03;5063299;28;20064;-76
2023/07/12 10:13:51;;;;;;;4.90;1.63;;;;;;;-146.27;68.08;81062.59;5069423;28;20031;-76
2023/07/12 10:16:34;;;;;;;7.97;2.00;;;;;;;-146.27;68.41;80996.34;5070538;28;20056;-72
2023/07/12 10:19:04;;;;;;;;;;;;;;;-146.27;67.00;81018.44;5067953;28;20028;-73
2023/07/12 10:21:31;;;;;;;7.05;1.60;;;;;;;-146.27;66.34;81070.66;5069866;28;19967;-74
2023/07/12 10:24:03;;;;;;;5.05;1.30;;;;;;;-146.27;67.33;81050.56;5067065;28;20051;-73
2023/07/12 10:26:30;;;;;;;9.18;1.67;;;;;;;-146.27;67.31;80990.31;5063840;28;20028;-74
2023/07/12 10:29:01;;;;;;;3.88;1.55;;;;;;;-146.27;67.81;81060.59;5069343;28;20032;-73
2023/07/12 10:31:36;;;;;;;6.47;1.80;;;;;;;-146.27;68.42;81040.53;5065246;28;20025;-74
2023/07/12 10:34:19;;;;;;;4.45;1.42;;;;;;;-146.27;68.18;80960.19;5061286;28;20497;-74
2023/07/12 10:36:45;;;;;;;;;;;;;;;-146.27;67.77;80873.84;5064774;28;20151;-72
2023/07/12 10:39:12;;;;;;;9.88;2.20;;;;;;;-146.27;68.36;80970.25;5066962;28;20371;-72
2023/07/12 10:41:50;;;;;;;7.82;2.58;;;;;;;-146.27;68.61;81090.72;5067938;28;20486;-72
2023/07/12 10:44:53;;;;;;;4.47;2.10;;;;;;;-146.27;70.48;81173.06;5079563;28;20024;-74
2023/07/12 10:47:20;;;;;;;4.57;1.77;;;;;;;-146.27;70.79;81106.78;5061922;28;20098;-72
2023/07/12 10:49:52;;;;;;;8.43;1.75;;;;;;;-146.27;69.73;81094.75;5064610;28;20024;-71
2023/07/12 10:52:47;;;;;;;7.33;1.70;;;;;;;-146.27;69.49;81006.38;5053853;28;20043;-74
2023/07/12 10:55:21;;;;;;;9.23;1.63;;;;;;;-146.27;68.38;80996.34;5066868;28;20388;-74
2023/07/12 10:57:51;;;;;;;6.72;1.83;;;;;;;-146.27;66.93;80974.25;5069406;28;20028;-73
2023/07/12 11:00:16;;;;;;;5.90;1.70;;;;;;;-146.27;66.00;81002.38;5069453;28;20040;-74
2023/07/12 11:03:00;;;;;;;10.43;2.08;;;;;;;-146.27;67.22;81034.50;5067365;28;20365;-74
2023/07/12 11:05:54;;;;;;;11.15;2.28;;;;;;;-146.27;68.74;80903.97;5064480;28;21541;-74
2023/07/12 11:08:32;;;;;;;6.75;1.52;;;;;;;-146.27;67.04;80891.94;5055949;28;20029;-73
2023/07/12 11:11:07;;;;;;;7.53;1.80;;;;;;;-146.27;67.34;81000.34;5053174;28;20072;-72
2023/07/12 11:13:34;;;;;;;5.57;1.70;;;;;;;-146.27;67.46;81042.53;5067143;28;20127;-73
2023/07/12 11:16:13;;;;;;;5.32;1.88;;;;;;;-146.27;67.23;81012.41;5065926;28;20025;-72
2023/07/12 11:18:48;;;;;;;5.40;1.98;;;;;;;-146.27;66.59;80952.16;5071892;28;20029;-73